Time;durP1;ratioP1;P1;durP2;ratioP2;P2;SDS_P1;SDS_P2;PMS_P1;PMS_P2;Temp;Humidity;BMP_temperature;BMP_pressure;BME280_temperature;BME280_humidity;BME280_pressure;Samples;Min_cycle;Max_cycle;Signal;HPM_P1;HPM_P2
2021/06/20 00:01:26;;;;;;;;;;;27.60;45.50;;;;;;1585186;74;788;-72
2021/06/20 00:03:28;;;;;;;;;;;27.60;45.60;;;;;;1580179;74;907;-72
2021/06/20 00:05:30;;;;;;;;;;;27.60;45.60;;;;;;1582837;74;735;-72
2021/06/20 00:07:32;;;;;;;;;;;27.60;45.70;;;;;;1580225;74;1936;-72
2021/06/20 00:09:34;;;;;;;;;;;27.60;45.80;;;;;;1570241;74;1170;-72
2021/06/20 00:11:36;;;;;;;;;;;27.60;45.70;;;;;;1568318;74;800;-72
2021/06/20 00:13:38;;;;;;;;;;;27.50;45.90;;;;;;1573978;74;788;-71
2021/06/20 00:15:40;;;;;;;;;;;27.50;45.90;;;;;;1577141;74;783;-72
2021/06/20 00:17:42;;;;;;;;;;;27.50;45.80;;;;;;1567474;74;801;-70
2021/06/20 00:19:44;;;;;;;;;;;27.50;46.10;;;;;;1585636;74;1135;-71
2021/06/20 00:21:46;;;;;;;;;;;27.50;46.20;;;;;;1579186;74;701;-69
2021/06/20 00:23:48;;;;;;;;;;;27.50;46.20;;;;;;1510794;77;654;-68
2021/06/20 00:25:50;;;;;;;;;;;27.50;45.90;;;;;;1507586;77;831;-69
2021/06/20 00:27:52;;;;;;;;;;;27.40;45.50;;;;;;1525115;76;1949;-68
2021/06/20 00:29:54;;;;;;;;;;;27.50;45.40;;;;;;1514129;76;1162;-69
2021/06/20 00:31:56;;;;;;;;;;;27.50;45.00;;;;;;1530662;77;818;-70
2021/06/20 00:33:58;;;;;;;;;;;27.50;45.10;;;;;;1513538;77;836;-68
2021/06/20 00:36:00;;;;;;;;;;;27.50;45.10;;;;;;1522030;77;719;-67
2021/06/20 00:38:02;;;;;;;;;;;27.50;45.00;;;;;;1541968;76;763;-67
2021/06/20 00:40:04;;;;;;;;;;;27.40;44.80;;;;;;1514344;77;1138;-69
2021/06/20 00:42:06;;;;;;;;;;;27.40;44.80;;;;;;1498794;77;765;-69
2021/06/20 00:44:08;;;;;;;;;;;27.40;44.90;;;;;;1507879;76;863;-68
2021/06/20 00:46:10;;;;;;;;;;;27.40;44.70;;;;;;1533013;77;760;-67
2021/06/20 00:48:12;;;;;;;;;;;27.40;45.00;;;;;;1516551;77;1949;-67
2021/06/20 00:50:14;;;;;;;;;;;27.50;44.80;;;;;;1515504;77;1132;-67
2021/06/20 00:52:16;;;;;;;;;;;27.40;44.80;;;;;;1506325;77;801;-65
2021/06/20 00:54:18;;;;;;;;;;;27.40;44.70;;;;;;1525978;77;839;-67
2021/06/20 00:56:20;;;;;;;;;;;27.40;44.90;;;;;;1547900;76;792;-67
2021/06/20 00:58:23;;;;;;;;;;;27.40;45.00;;;;;;1548785;75;690;-67
2021/06/20 01:00:25;;;;;;;;;;;27.40;44.70;;;;;;1545979;75;1137;-66
2021/06/20 01:02:26;;;;;;;;;;;27.40;44.80;;;;;;1536000;76;774;-67
2021/06/20 01:04:28;;;;;;;;;;;27.40;44.70;;;;;;1538084;75;835;-68
2021/06/20 01:06:30;;;;;;;;;;;27.40;44.70;;;;;;1548370;75;769;-68
2021/06/20 01:08:32;;;;;;;;;;;27.40;45.00;;;;;;1576986;74;1946;-68
2021/06/20 01:10:37;;;;;;;;;;;27.40;44.90;;;;;;1583440;73;1111;-67
2021/06/20 01:12:38;;;;;;;;;;;27.40;44.70;;;;;;1573507;74;822;-68
2021/06/20 01:14:41;;;;;;;;;;;27.40;44.50;;;;;;1578596;74;749;-68
2021/06/20 01:16:42;;;;;;;;;;;27.40;44.70;;;;;;1574445;74;741;-68
2021/06/20 01:18:44;;;;;;;;;;;27.40;44.80;;;;;;1576812;74;791;-67
2021/06/20 01:20:46;;;;;;;;;;;27.30;44.70;;;;;;1579805;74;1029;-67
2021/06/20 01:22:49;;;;;;;;;;;27.40;44.70;;;;;;1578181;74;966;-66
2021/06/20 01:24:58;;;;;;;;;;;27.40;44.50;;;;;;1584867;74;730;-67
2021/06/20 01:26:59;;;;;;;;;;;27.40;44.70;;;;;;1568560;74;702;-68
2021/06/20 01:29:05;;;;;;;;;;;27.40;44.90;;;;;;1579951;74;1934;-69
2021/06/20 01:31:11;;;;;;;;;;;27.30;44.90;;;;;;1567670;74;705;-68
2021/06/20 01:33:11;;;;;;;;;;;27.40;44.60;;;;;;1565347;74;1679;-68
2021/06/20 01:35:13;;;;;;;;;;;27.30;44.80;;;;;;1579824;74;726;-68
2021/06/20 01:37:16;;;;;;;;;;;27.40;44.50;;;;;;1551591;74;844;-67
2021/06/20 01:39:17;;;;;;;;;;;27.40;44.70;;;;;;1585713;74;1167;-69
2021/06/20 01:41:19;;;;;;;;;;;27.40;44.60;;;;;;1573499;74;759;-68
2021/06/20 01:43:21;;;;;;;;;;;27.40;44.50;;;;;;1579073;74;770;-67
2021/06/20 01:45:23;;;;;;;;;;;27.40;44.60;;;;;;1551414;76;776;-68
2021/06/20 01:47:26;;;;;;;;;;;27.30;44.50;;;;;;1544282;76;723;-69
2021/06/20 01:49:27;;;;;;;;;;;27.40;44.70;;;;;;1533363;76;1944;-69
2021/06/20 01:51:29;;;;;;;;;;;27.30;44.70;;;;;;1515137;77;795;-67
2021/06/20 01:53:31;;;;;;;;;;;27.40;44.60;;;;;;1534982;77;724;-69
2021/06/20 01:55:33;;;;;;;;;;;27.40;44.60;;;;;;1535374;76;784;-70
2021/06/20 01:57:35;;;;;;;;;;;27.30;44.60;;;;;;1514326;76;804;-69
2021/06/20 01:59:37;;;;;;;;;;;27.30;44.40;;;;;;1568205;74;1146;-70
2021/06/20 02:01:39;;;;;;;;;;;27.20;44.40;;;;;;1580601;74;783;-70
2021/06/20 02:03:41;;;;;;;;;;;27.30;44.30;;;;;;1575957;74;653;-70
2021/06/20 02:05:43;;;;;;;;;;;27.20;44.30;;;;;;1593984;74;786;-69
2021/06/20 02:07:45;;;;;;;;;;;27.30;44.30;;;;;;1585456;74;905;-69
2021/06/20 02:09:47;;;;;;;;;;;27.30;44.40;;;;;;1581539;74;1945;-69
2021/06/20 02:11:49;;;;;;;;;;;27.20;44.40;;;;;;1586803;74;719;-69
2021/06/20 02:13:51;;;;;;;;;;;27.20;44.20;;;;;;1572480;74;727;-69
2021/06/20 02:15:53;;;;;;;;;;;27.30;44.30;;;;;;1575495;74;806;-69
2021/06/20 02:17:55;;;;;;;;;;;27.20;44.30;;;;;;1574717;74;785;-69
2021/06/20 02:19:57;;;;;;;;;;;27.10;44.30;;;;;;1575013;74;1127;-71
2021/06/20 02:21:59;;;;;;;;;;;27.20;44.30;;;;;;1584582;74;717;-69
2021/06/20 02:24:01;;;;;;;;;;;27.10;44.30;;;;;;1578631;74;802;-69
2021/06/20 02:26:03;;;;;;;;;;;27.20;44.40;;;;;;1592637;74;787;-70
2021/06/20 02:28:05;;;;;;;;;;;27.10;44.20;;;;;;1581387;74;791;-69
2021/06/20 02:30:07;;;;;;;;;;;27.20;44.30;;;;;;1584523;73;1933;-67
2021/06/20 02:32:12;;;;;;;;;;;27.20;44.20;;;;;;1581475;74;776;-69
2021/06/20 02:34:14;;;;;;;;;;;27.20;44.20;;;;;;1578949;74;810;-69
2021/06/20 02:36:16;;;;;;;;;;;27.20;44.30;;;;;;1569504;74;781;-70
2021/06/20 02:38:18;;;;;;;;;;;27.20;44.30;;;;;;1577451;74;743;-69
2021/06/20 02:40:19;;;;;;;;;;;27.20;44.20;;;;;;1583747;74;1176;-69
2021/06/20 02:42:21;;;;;;;;;;;27.30;44.20;;;;;;1575810;74;734;-68
2021/06/20 02:44:23;;;;;;;;;;;27.20;44.10;;;;;;1580044;74;768;-68
2021/06/20 02:46:25;;;;;;;;;;;27.20;44.20;;;;;;1579179;74;748;-68
2021/06/20 02:48:27;;;;;;;;;;;27.20;44.20;;;;;;1578438;74;781;-68
2021/06/20 02:50:29;;;;;;;;;;;27.10;44.40;;;;;;1576980;74;1947;-68
2021/06/20 02:52:31;;;;;;;;;;;27.20;44.40;;;;;;1574211;74;712;-67
2021/06/20 02:54:33;;;;;;;;;;;27.20;44.30;;;;;;1573609;74;739;-69
2021/06/20 02:56:35;;;;;;;;;;;27.20;44.30;;;;;;1574044;74;744;-68
2021/06/20 02:58:36;;;;;;;;;;;27.20;44.30;;;;;;1580134;74;809;-68
2021/06/20 03:00:38;;;;;;;;;;;27.20;44.40;;;;;;1578895;74;1145;-68
2021/06/20 03:02:40;;;;;;;;;;;27.20;44.40;;;;;;1566205;74;829;-68
2021/06/20 03:04:42;;;;;;;;;;;27.10;44.30;;;;;;1567774;74;706;-69
2021/06/20 03:06:44;;;;;;;;;;;27.10;44.30;;;;;;1572302;74;850;-68
2021/06/20 03:08:46;;;;;;;;;;;27.10;44.40;;;;;;1581991;74;1942;-69
2021/06/20 03:10:48;;;;;;;;;;;27.10;44.30;;;;;;1571225;74;1245;-69
2021/06/20 03:12:50;;;;;;;;;;;27.10;44.60;;;;;;1591227;74;827;-68
2021/06/20 03:14:52;;;;;;;;;;;27.20;44.60;;;;;;1583792;74;740;-69
2021/06/20 03:16:53;;;;;;;;;;;27.10;44.50;;;;;;1572668;74;739;-69
2021/06/20 03:18:55;;;;;;;;;;;27.20;44.50;;;;;;1579346;74;1135;-69
2021/06/20 03:20:57;;;;;;;;;;;27.20;44.40;;;;;;1576555;73;761;-69
2021/06/20 03:22:59;;;;;;;;;;;27.20;44.60;;;;;;1586798;74;802;-69
2021/06/20 03:25:01;;;;;;;;;;;27.20;44.60;;;;;;1582354;74;728;-69
2021/06/20 03:27:03;;;;;;;;;;;27.20;44.50;;;;;;1589669;74;793;-70
2021/06/20 03:29:05;;;;;;;;;;;27.20;44.70;;;;;;1579880;74;1938;-69
2021/06/20 03:31:07;;;;;;;;;;;27.20;44.70;;;;;;1580016;74;726;-70
2021/06/20 03:33:09;;;;;;;;;;;27.10;44.70;;;;;;1587550;74;754;-70
2021/06/20 03:35:12;;;;;;;;;;;27.10;44.60;;;;;;1563048;74;749;-66
2021/06/20 03:37:14;;;;;;;;;;;27.20;44.60;;;;;;1587041;74;768;-69
2021/06/20 03:39:15;;;;;;;;;;;27.10;44.70;;;;;;1577425;74;1195;-67
2021/06/20 03:41:17;;;;;;;;;;;27.30;44.50;;;;;;1573055;74;656;-68
2021/06/20 03:43:19;;;;;;;;;;;27.10;44.60;;;;;;1577806;74;715;-66
2021/06/20 03:45:21;;;;;;;;;;;27.10;44.60;;;;;;1578428;74;766;-67
2021/06/20 03:47:23;;;;;;;;;;;27.10;44.50;;;;;;1568433;74;717;-68
2021/06/20 03:49:25;;;;;;;;;;;27.20;44.60;;;;;;1593562;74;1960;-68
2021/06/20 03:51:27;;;;;;;;;;;27.10;44.50;;;;;;1582924;74;743;-67
2021/06/20 03:53:29;;;;;;;;;;;27.20;44.60;;;;;;1586920;74;792;-68
2021/06/20 03:55:31;;;;;;;;;;;27.20;44.50;;;;;;1573940;74;779;-69
2021/06/20 03:57:32;;;;;;;;;;;27.20;44.40;;;;;;1575619;74;754;-68
2021/06/20 03:59:34;;;;;;;;;;;27.10;44.60;;;;;;1581863;74;1095;-68
2021/06/20 04:01:36;;;;;;;;;;;27.20;44.60;;;;;;1582231;74;730;-66
2021/06/20 04:03:38;;;;;;;;;;;27.20;44.50;;;;;;1576608;74;785;-68
2021/06/20 04:05:40;;;;;;;;;;;27.20;44.60;;;;;;1583145;74;765;-68
2021/06/20 04:07:42;;;;;;;;;;;27.20;44.60;;;;;;1586186;74;781;-69
2021/06/20 04:09:44;;;;;;;;;;;27.20;44.60;;;;;;1589001;73;1961;-67
2021/06/20 04:11:51;;;;;;;;;;;27.10;44.60;;;;;;1591202;74;843;-68
2021/06/20 04:13:49;;;;;;;;;;;27.20;44.50;;;;;;1584538;74;1354;-68
2021/06/20 04:15:51;;;;;;;;;;;27.20;44.50;;;;;;1575505;74;805;-68
2021/06/20 04:17:53;;;;;;;;;;;27.10;44.40;;;;;;1568287;74;842;-68
2021/06/20 04:19:55;;;;;;;;;;;27.20;44.40;;;;;;1588546;73;1264;-68
2021/06/20 04:21:57;;;;;;;;;;;27.10;44.40;;;;;;1575739;74;730;-68
2021/06/20 04:23:59;;;;;;;;;;;27.10;44.50;;;;;;1571624;74;776;-68
2021/06/20 04:26:01;;;;;;;;;;;27.10;44.60;;;;;;1575378;74;658;-68
2021/06/20 04:28:03;;;;;;;;;;;27.10;44.80;;;;;;1577162;74;742;-68
2021/06/20 04:30:05;;;;;;;;;;;27.10;44.90;;;;;;1572854;74;1942;-72
2021/06/20 04:32:07;;;;;;;;;;;27.10;45.10;;;;;;1571272;74;625;-68
2021/06/20 04:34:09;;;;;;;;;;;27.10;45.10;;;;;;1573079;74;771;-69
2021/06/20 04:36:11;;;;;;;;;;;27.10;45.10;;;;;;1574439;74;808;-66
2021/06/20 04:38:13;;;;;;;;;;;27.10;45.20;;;;;;1578059;74;747;-67
2021/06/20 04:40:18;;;;;;;;;;;27.10;45.30;;;;;;1573453;74;1183;-67
2021/06/20 04:42:21;;;;;;;;;;;27.10;45.30;;;;;;1569089;74;1553;-68
2021/06/20 04:46:43;;;;;;;;;;;27.10;45.30;;;;;;1572172;74;1842;-69
2021/06/20 04:48:44;;;;;;;;;;;27.10;45.30;;;;;;1573403;74;747;-68
2021/06/20 04:50:46;;;;;;;;;;;27.20;45.30;;;;;;1575327;74;1973;-68
2021/06/20 04:52:48;;;;;;;;;;;27.10;45.50;;;;;;1573187;74;795;-69
2021/06/20 04:54:50;;;;;;;;;;;27.10;45.50;;;;;;1573537;74;764;-68
2021/06/20 04:56:52;;;;;;;;;;;27.10;45.50;;;;;;1573455;74;796;-69
2021/06/20 04:58:55;;;;;;;;;;;27.10;45.50;;;;;;1572378;74;1141;-67
2021/06/20 05:00:56;;;;;;;;;;;27.10;45.60;;;;;;1589570;72;217970;-66
2021/06/20 05:02:58;;;;;;;;;;;27.10;45.60;;;;;;1597502;73;771;-66
2021/06/20 05:05:01;;;;;;;;;;;27.10;45.50;;;;;;1599152;73;693;-67
2021/06/20 05:07:05;;;;;;;;;;;27.10;45.60;;;;;;1602496;73;691;-66
2021/06/20 05:09:07;;;;;;;;;;;27.10;45.60;;;;;;1605757;73;735;-67
2021/06/20 05:11:09;;;;;;;;;;;27.10;45.60;;;;;;1619687;72;1934;-66
2021/06/20 05:13:11;;;;;;;;;;;27.10;45.70;;;;;;1628280;72;738;-64
2021/06/20 05:15:13;;;;;;;;;;;27.20;46.00;;;;;;1627289;72;744;-65
2021/06/20 05:17:16;;;;;;;;;;;27.10;46.00;;;;;;1627818;72;818;-66
2021/06/20 05:19:17;;;;;;;;;;;27.20;46.30;;;;;;1624848;72;755;-65
2021/06/20 05:21:19;;;;;;;;;;;27.10;46.40;;;;;;1627666;72;769;-64
2021/06/20 05:23:21;;;;;;;;;;;27.10;46.30;;;;;;1624345;72;708;-65
2021/06/20 05:25:23;;;;;;;;;;;27.10;46.40;;;;;;1622173;72;764;-64
2021/06/20 05:27:25;;;;;;;;;;;27.10;46.60;;;;;;1621660;72;699;-65
2021/06/20 05:29:27;;;;;;;;;;;27.10;46.50;;;;;;1619056;72;1136;-65
2021/06/20 05:31:29;;;;;;;;;;;27.10;46.40;;;;;;1614590;72;1914;-65
2021/06/20 05:33:31;;;;;;;;;;;27.10;46.40;;;;;;1619532;72;733;-67
2021/06/20 05:35:33;;;;;;;;;;;27.10;46.30;;;;;;1616104;72;666;-65
2021/06/20 05:37:34;;;;;;;;;;;27.10;46.30;;;;;;1614331;72;763;-65
2021/06/20 05:39:36;;;;;;;;;;;27.10;46.30;;;;;;1608978;72;1115;-64
2021/06/20 05:41:38;;;;;;;;;;;27.10;46.30;;;;;;1615732;72;700;-65
2021/06/20 05:43:40;;;;;;;;;;;27.10;46.30;;;;;;1613436;72;767;-67
2021/06/20 05:45:42;;;;;;;;;;;27.10;46.30;;;;;;1616850;72;758;-65
2021/06/20 05:47:44;;;;;;;;;;;27.10;46.50;;;;;;1613933;72;748;-67
2021/06/20 05:49:46;;;;;;;;;;;27.10;46.40;;;;;;1613381;72;1939;-68
2021/06/20 05:51:47;;;;;;;;;;;27.10;46.40;;;;;;1618042;72;967;-63
2021/06/20 05:53:49;;;;;;;;;;;27.10;46.50;;;;;;1621362;72;741;-65
2021/06/20 05:55:51;;;;;;;;;;;27.10;46.40;;;;;;1608757;72;757;-66
2021/06/20 05:57:53;;;;;;;;;;;27.10;46.50;;;;;;1621519;72;767;-66
2021/06/20 05:59:55;;;;;;;;;;;27.10;46.30;;;;;;1614407;72;1164;-65
2021/06/20 06:01:57;;;;;;;;;;;27.10;46.30;;;;;;1618506;72;758;-65
2021/06/20 06:03:59;;;;;;;;;;;27.10;46.40;;;;;;1626050;72;782;-65
2021/06/20 06:06:02;;;;;;;;;;;27.10;46.20;;;;;;1622646;72;750;-65
2021/06/20 06:08:04;;;;;;;;;;;27.10;46.50;;;;;;1620127;72;728;-65
2021/06/20 06:10:06;;;;;;;;;;;27.10;46.50;;;;;;1622817;72;1935;-64
2021/06/20 06:12:08;;;;;;;;;;;27.10;46.30;;;;;;1616794;72;616;-65
2021/06/20 06:14:10;;;;;;;;;;;27.10;46.30;;;;;;1627469;72;728;-65
2021/06/20 06:16:11;;;;;;;;;;;27.10;46.30;;;;;;1622473;72;732;-66
2021/06/20 06:18:13;;;;;;;;;;;27.10;46.40;;;;;;1614056;72;727;-67
2021/06/20 06:20:15;;;;;;;;;;;27.20;46.40;;;;;;1623940;72;1121;-64
2021/06/20 06:22:18;;;;;;;;;;;27.10;46.50;;;;;;1621355;72;767;-68
2021/06/20 06:24:19;;;;;;;;;;;27.10;46.60;;;;;;1617123;72;695;-65
2021/06/20 06:26:21;;;;;;;;;;;27.10;46.80;;;;;;1625050;72;951;-65
2021/06/20 06:28:23;;;;;;;;;;;27.10;47.00;;;;;;1620072;73;709;-66
2021/06/20 06:30:25;;;;;;;;;;;27.00;47.30;;;;;;1610043;72;1917;-66
2021/06/20 06:32:27;;;;;;;;;;;27.00;47.10;;;;;;1620789;72;732;-65
2021/06/20 06:34:29;;;;;;;;;;;27.00;47.40;;;;;;1603278;73;668;-66
2021/06/20 06:36:31;;;;;;;;;;;27.00;47.60;;;;;;1617775;72;823;-65
2021/06/20 06:38:33;;;;;;;;;;;26.70;47.40;;;;;;1611414;72;736;-67
2021/06/20 06:40:36;;;;;;;;;;;26.70;47.50;;;;;;1609301;72;1167;-65
2021/06/20 06:42:38;;;;;;;;;;;26.80;47.50;;;;;;1604758;72;774;-65
2021/06/20 06:44:39;;;;;;;;;;;26.70;47.90;;;;;;1615807;72;746;-66
2021/06/20 06:46:41;;;;;;;;;;;26.70;47.80;;;;;;1612481;72;725;-68
2021/06/20 06:48:43;;;;;;;;;;;26.70;47.70;;;;;;1613656;72;711;-67
2021/06/20 06:50:45;;;;;;;;;;;26.70;47.70;;;;;;1610308;72;1958;-65
2021/06/20 06:52:47;;;;;;;;;;;26.80;47.60;;;;;;1630922;72;797;-64
2021/06/20 06:54:52;;;;;;;;;;;26.80;47.60;;;;;;1618481;72;812;-65
2021/06/20 06:56:54;;;;;;;;;;;26.70;47.60;;;;;;1626917;72;739;-66
2021/06/20 06:58:56;;;;;;;;;;;26.70;47.80;;;;;;1624794;72;740;-65
2021/06/20 07:00:58;;;;;;;;;;;26.70;47.70;;;;;;1622754;72;1145;-66
2021/06/20 07:02:59;;;;;;;;;;;26.80;47.60;;;;;;1613506;72;716;-65
2021/06/20 07:05:01;;;;;;;;;;;26.80;47.60;;;;;;1625359;72;779;-65
2021/06/20 07:07:03;;;;;;;;;;;26.70;47.80;;;;;;1626965;72;705;-64
2021/06/20 07:09:05;;;;;;;;;;;26.70;48.00;;;;;;1621843;72;798;-64
2021/06/20 07:11:07;;;;;;;;;;;26.60;48.20;;;;;;1618023;72;1944;-64
2021/06/20 07:13:09;;;;;;;;;;;26.60;48.10;;;;;;1619615;72;773;-66
2021/06/20 07:15:11;;;;;;;;;;;26.60;48.40;;;;;;1626805;72;711;-64
2021/06/20 07:17:13;;;;;;;;;;;26.60;48.60;;;;;;1625952;72;856;-67
2021/06/20 07:19:15;;;;;;;;;;;26.50;48.90;;;;;;1621273;72;758;-66
2021/06/20 07:21:17;;;;;;;;;;;26.50;49.00;;;;;;1618901;72;1119;-64
2021/06/20 07:23:19;;;;;;;;;;;26.50;48.70;;;;;;1625561;72;795;-65
2021/06/20 07:25:21;;;;;;;;;;;26.60;48.50;;;;;;1621956;72;787;-65
2021/06/20 07:27:23;;;;;;;;;;;26.60;48.30;;;;;;1619687;72;801;-65
2021/06/20 07:29:25;;;;;;;;;;;26.60;48.20;;;;;;1611987;72;1154;-64
2021/06/20 07:31:27;;;;;;;;;;;26.50;48.40;;;;;;1622133;72;1924;-65
2021/06/20 07:33:29;;;;;;;;;;;26.60;48.50;;;;;;1609358;72;746;-69
2021/06/20 07:35:31;;;;;;;;;;;26.70;48.30;;;;;;1611617;72;788;-64
2021/06/20 07:37:33;;;;;;;;;;;26.60;48.40;;;;;;1622075;72;658;-67
2021/06/20 07:39:35;;;;;;;;;;;26.60;48.20;;;;;;1608384;72;1138;-65
2021/06/20 07:41:37;;;;;;;;;;;26.60;48.30;;;;;;1610372;72;785;-66
2021/06/20 07:43:39;;;;;;;;;;;26.60;48.10;;;;;;1620029;72;707;-67
2021/06/20 07:45:40;;;;;;;;;;;26.70;48.00;;;;;;1620584;72;787;-66
2021/06/20 07:47:43;;;;;;;;;;;26.60;48.30;;;;;;1620609;72;732;-64
2021/06/20 07:49:45;;;;;;;;;;;26.50;48.40;;;;;;1608674;72;1197;-65
2021/06/20 07:51:47;;;;;;;;;;;26.60;48.20;;;;;;1610787;72;1933;-64
2021/06/20 07:53:48;;;;;;;;;;;26.60;48.10;;;;;;1609147;72;740;-64
2021/06/20 07:55:50;;;;;;;;;;;26.70;48.20;;;;;;1617996;72;735;-65
2021/06/20 07:57:52;;;;;;;;;;;26.70;47.80;;;;;;1625000;72;801;-65
2021/06/20 07:59:54;;;;;;;;;;;26.80;48.00;;;;;;1614969;72;1120;-65
2021/06/20 08:01:56;;;;;;;;;;;26.90;47.80;;;;;;1621350;72;795;-65
2021/06/20 08:03:58;;;;;;;;;;;27.00;48.30;;;;;;1622223;72;746;-68
2021/06/20 08:06:00;;;;;;;;;;;27.00;48.50;;;;;;1619373;72;787;-66
2021/06/20 08:08:02;;;;;;;;;;;27.10;48.20;;;;;;1619238;72;900;-68
2021/06/20 08:10:04;;;;;;;;;;;27.10;48.40;;;;;;1607281;72;1155;-66
2021/06/20 08:12:08;;;;;;;;;;;27.00;48.40;;;;;;1620113;72;1935;-66
2021/06/20 08:14:10;;;;;;;;;;;27.00;48.20;;;;;;1616062;72;762;-66
2021/06/20 08:16:12;;;;;;;;;;;27.00;48.10;;;;;;1612224;72;802;-66
2021/06/20 08:18:14;;;;;;;;;;;27.00;47.80;;;;;;1610334;72;817;-66
2021/06/20 08:20:17;;;;;;;;;;;27.00;47.80;;;;;;1603199;72;1177;-64
2021/06/20 08:22:19;;;;;;;;;;;27.00;47.70;;;;;;1619508;72;711;-65
2021/06/20 08:24:21;;;;;;;;;;;27.10;47.60;;;;;;1626787;72;724;-65
2021/06/20 08:26:23;;;;;;;;;;;27.10;47.50;;;;;;1620078;72;839;-65
2021/06/20 08:28:24;;;;;;;;;;;27.10;47.30;;;;;;1616941;72;823;-66
2021/06/20 08:30:26;;;;;;;;;;;27.10;47.30;;;;;;1623656;72;1150;-66
2021/06/20 08:32:31;;;;;;;;;;;27.10;47.40;;;;;;1618909;72;1931;-69
2021/06/20 08:34:33;;;;;;;;;;;27.00;47.50;;;;;;1619121;72;714;-65
2021/06/20 08:36:36;;;;;;;;;;;27.00;47.50;;;;;;1617371;72;771;-65
2021/06/20 08:38:38;;;;;;;;;;;27.00;47.50;;;;;;1622535;72;750;-65
2021/06/20 08:40:42;;;;;;;;;;;27.00;47.40;;;;;;1617359;72;1158;-71
2021/06/20 08:42:43;;;;;;;;;;;27.00;47.50;;;;;;1616414;72;653;-66
2021/06/20 08:44:46;;;;;;;;;;;27.00;47.40;;;;;;1614902;72;768;-66
2021/06/20 08:46:47;;;;;;;;;;;27.00;47.40;;;;;;1611656;72;729;-66
2021/06/20 08:48:49;;;;;;;;;;;26.90;46.60;;;;;;1611580;72;724;-66
2021/06/20 08:50:51;;;;;;;;;;;27.00;47.30;;;;;;1618634;72;1940;-66
2021/06/20 08:52:54;;;;;;;;;;;27.00;47.30;;;;;;1611413;72;731;-67
2021/06/20 08:55:02;;;;;;;;;;;27.00;47.30;;;;;;1609701;72;791;-67
2021/06/20 08:57:07;;;;;;;;;;;26.90;46.60;;;;;;1616727;72;682;-67
2021/06/20 08:59:11;;;;;;;;;;;27.00;47.20;;;;;;1604671;72;809;-69
2021/06/20 09:01:13;;;;;;;;;;;27.00;47.30;;;;;;1616732;72;1125;-67
2021/06/20 09:03:15;;;;;;;;;;;27.00;47.30;;;;;;1615489;72;798;-68
2021/06/20 09:05:17;;;;;;;;;;;26.90;46.50;;;;;;1614385;72;784;-67
2021/06/20 09:07:20;;;;;;;;;;;27.00;47.30;;;;;;1592900;73;751;-67
2021/06/20 09:09:32;;;;;;;;;;;26.90;46.50;;;;;;1615246;72;1741;-67
2021/06/20 09:11:35;;;;;;;;;;;27.00;47.20;;;;;;1608339;72;1907;-67
2021/06/20 09:13:37;;;;;;;;;;;27.00;47.30;;;;;;1612935;72;805;-68
2021/06/20 09:15:39;;;;;;;;;;;26.90;46.60;;;;;;1610171;72;660;-67
2021/06/20 09:17:40;;;;;;;;;;;27.00;47.20;;;;;;1619456;72;730;-68
2021/06/20 09:19:42;;;;;;;;;;;27.00;47.10;;;;;;1610857;72;1157;-67
2021/06/20 09:21:53;;;;;;;;;;;27.00;47.10;;;;;;1609928;72;719;-67
2021/06/20 09:23:56;;;;;;;;;;;27.00;47.20;;;;;;1617121;72;728;-67
2021/06/20 09:25:59;;;;;;;;;;;26.90;46.50;;;;;;1625859;72;820;-67
2021/06/20 09:28:02;;;;;;;;;;;27.00;47.10;;;;;;1617391;72;699;-68
2021/06/20 09:30:07;;;;;;;;;;;27.00;47.30;;;;;;1616379;72;1178;-67
2021/06/20 09:32:09;;;;;;;;;;;27.00;47.30;;;;;;1616446;72;1921;-67
2021/06/20 09:34:11;;;;;;;;;;;26.90;46.70;;;;;;1611837;72;873;-67
2021/06/20 09:36:13;;;;;;;;;;;26.90;46.60;;;;;;1615544;72;747;-67
2021/06/20 09:38:19;;;;;;;;;;;26.90;46.60;;;;;;1609742;72;733;-66
2021/06/20 09:40:21;;;;;;;;;;;27.00;47.20;;;;;;1608956;72;1142;-67
2021/06/20 09:42:25;;;;;;;;;;;27.00;47.20;;;;;;1610061;72;760;-67
2021/06/20 09:44:43;;;;;;;;;;;27.00;47.10;;;;;;1622032;72;702;-68
2021/06/20 09:46:46;;;;;;;;;;;27.00;47.10;;;;;;1621851;72;841;-67
2021/06/20 09:48:48;;;;;;;;;;;27.00;47.10;;;;;;1618877;72;1933;-65
2021/06/20 09:50:50;;;;;;;;;;;27.00;47.20;;;;;;1609109;72;1158;-67
2021/06/20 09:52:52;;;;;;;;;;;27.00;47.20;;;;;;1617745;72;1935;-67
2021/06/20 09:54:55;;;;;;;;;;;27.00;47.20;;;;;;1581679;73;1142;-67
2021/06/20 09:56:56;;;;;;;;;;;27.00;47.30;;;;;;1617367;72;713;-68
2021/06/20 09:59:00;;;;;;;;;;;27.00;47.20;;;;;;1607328;72;797;-67
2021/06/20 10:01:03;;;;;;;;;;;26.90;46.50;;;;;;1610657;72;1153;-68
2021/06/20 10:03:06;;;;;;;;;;;27.00;47.20;;;;;;1600119;73;1868;-69
2021/06/20 10:05:08;;;;;;;;;;;27.00;47.30;;;;;;1611808;72;858;-68
2021/06/20 10:07:10;;;;;;;;;;;27.10;47.60;;;;;;1611634;72;808;-68
2021/06/20 10:09:12;;;;;;;;;;;27.00;47.50;;;;;;1615360;72;718;-69
2021/06/20 10:11:14;;;;;;;;;;;26.90;46.60;;;;;;1612437;72;1934;-68
2021/06/20 10:13:16;;;;;;;;;;;27.00;47.30;;;;;;1611291;72;719;-68
2021/06/20 10:15:18;;;;;;;;;;;27.00;47.30;;;;;;1612701;72;771;-68
2021/06/20 10:17:32;;;;;;;;;;;27.00;47.20;;;;;;1612860;72;806;-69
2021/06/20 10:19:40;;;;;;;;;;;27.00;47.20;;;;;;1614141;72;1147;-69
2021/06/20 10:21:39;;;;;;;;;;;27.00;47.20;;;;;;1613412;72;1668;-69
2021/06/20 10:23:41;;;;;;;;;;;27.00;47.30;;;;;;1608570;72;837;-69
2021/06/20 10:25:42;;;;;;;;;;;27.00;47.30;;;;;;1613277;72;732;-69
2021/06/20 10:27:45;;;;;;;;;;;27.00;47.40;;;;;;1611877;72;778;-68
2021/06/20 10:29:48;;;;;;;;;;;27.10;47.40;;;;;;1622808;72;1196;-69
2021/06/20 10:31:50;;;;;;;;;;;27.00;47.30;;;;;;1600079;72;1943;-68
2021/06/20 10:33:52;;;;;;;;;;;27.10;47.20;;;;;;1619174;72;716;-68
2021/06/20 10:35:58;;;;;;;;;;;27.00;47.20;;;;;;1623718;72;787;-68
2021/06/20 10:38:00;;;;;;;;;;;27.00;47.10;;;;;;1617303;72;780;-69
2021/06/20 10:40:02;;;;;;;;;;;27.00;47.70;;;;;;1612218;72;1145;-66
2021/06/20 10:42:07;;;;;;;;;;;27.00;47.70;;;;;;1620419;72;713;-68
2021/06/20 10:44:09;;;;;;;;;;;27.10;47.60;;;;;;1609386;72;875;-69
2021/06/20 10:46:14;;;;;;;;;;;27.00;47.00;;;;;;1617579;72;687;-67
2021/06/20 10:48:21;;;;;;;;;;;27.00;46.80;;;;;;1634255;72;773;-68
2021/06/20 10:50:23;;;;;;;;;;;27.00;47.00;;;;;;1610106;72;1246;-68
2021/06/20 10:52:24;;;;;;;;;;;27.00;47.10;;;;;;1615609;72;1924;-68
2021/06/20 10:54:29;;;;;;;;;;;27.00;47.10;;;;;;1626230;72;744;-68
2021/06/20 10:56:31;;;;;;;;;;;27.00;47.20;;;;;;1617093;72;718;-68
2021/06/20 10:58:41;;;;;;;;;;;27.10;47.50;;;;;;1610337;72;698;-69
2021/06/20 11:00:37;;;;;;;;;;;27.00;47.60;;;;;;1599724;72;2026;-68
2021/06/20 11:02:39;;;;;;;;;;;27.00;47.70;;;;;;1617004;73;724;-68
2021/06/20 11:04:41;;;;;;;;;;;27.10;47.60;;;;;;1602467;72;732;-68
2021/06/20 11:06:44;;;;;;;;;;;27.10;47.70;;;;;;1595296;72;726;-68
2021/06/20 11:08:59;;;;;;;;;;;27.10;47.60;;;;;;1542546;75;1525;-69
2021/06/20 11:11:06;;;;;;;;;;;27.10;47.50;;;;;;1534852;75;1530;-70
2021/06/20 11:13:08;;;;;;;;;;;27.10;47.80;;;;;;1546099;76;1936;-71
2021/06/20 11:15:12;;;;;;;;;;;27.10;47.80;;;;;;1561245;76;788;-69
2021/06/20 11:17:14;;;;;;;;;;;27.00;47.80;;;;;;1537439;76;1622;-68
2021/06/20 11:19:17;;;;;;;;;;;27.00;47.80;;;;;;1528542;76;781;-68
2021/06/20 11:21:21;;;;;;;;;;;27.00;47.80;;;;;;1542690;76;1241;-69
2021/06/20 11:23:23;;;;;;;;;;;27.00;47.80;;;;;;1551805;76;1094;-69
2021/06/20 11:25:25;;;;;;;;;;;27.10;47.80;;;;;;1532637;76;737;-66
2021/06/20 11:27:28;;;;;;;;;;;27.10;47.80;;;;;;1547488;76;758;-68
2021/06/20 11:29:38;;;;;;;;;;;27.10;47.80;;;;;;1534595;76;764;-68
2021/06/20 11:31:46;;;;;;;;;;;27.10;47.80;;;;;;1523731;77;1930;-69
2021/06/20 11:33:49;;;;;;;;;;;27.00;47.80;;;;;;1537505;76;789;-69
2021/06/20 11:35:52;;;;;;;;;;;27.00;47.80;;;;;;1525458;77;1194;-69
2021/06/20 11:37:55;;;;;;;;;;;27.00;47.90;;;;;;1548680;76;633;-69
2021/06/20 11:39:58;;;;;;;;;;;27.10;47.80;;;;;;1521346;76;1142;-68
2021/06/20 11:42:00;;;;;;;;;;;27.10;47.80;;;;;;1533377;76;696;-66
2021/06/20 11:44:02;;;;;;;;;;;27.00;47.70;;;;;;1518071;77;732;-71
2021/06/20 11:46:04;;;;;;;;;;;27.10;47.60;;;;;;1511911;78;757;-69
2021/06/20 11:48:08;;;;;;;;;;;27.10;47.60;;;;;;1518098;77;804;-69
2021/06/20 11:50:11;;;;;;;;;;;27.00;47.50;;;;;;1526315;77;1465;-71
2021/06/20 11:52:13;;;;;;;;;;;27.00;47.50;;;;;;1514918;76;1948;-69
2021/06/20 11:54:16;;;;;;;;;;;27.00;47.40;;;;;;1512166;76;744;-69
2021/06/20 11:56:19;;;;;;;;;;;27.00;47.50;;;;;;1521072;76;789;-68
2021/06/20 11:58:22;;;;;;;;;;;27.00;47.70;;;;;;1555411;75;1048;-69
2021/06/20 12:00:27;;;;;;;;;;;27.00;47.80;;;;;;1538430;76;1176;-69
2021/06/20 12:02:29;;;;;;;;;;;27.00;47.80;;;;;;1543274;76;758;-68
2021/06/20 12:04:32;;;;;;;;;;;27.00;47.90;;;;;;1538815;76;817;-69
2021/06/20 12:06:33;;;;;;;;;;;27.00;47.80;;;;;;1539548;76;789;-69
2021/06/20 12:08:35;;;;;;;;;;;27.00;48.00;;;;;;1542326;76;729;-69
2021/06/20 12:10:38;;;;;;;;;;;27.00;47.90;;;;;;1542778;77;1165;-70
2021/06/20 12:12:40;;;;;;;;;;;27.10;47.90;;;;;;1545930;76;1923;-69